Thunder radar more information blitzortung!


Radar de pluja more information rain snow radar


Visita la nostra xarxa de llocs de meteo:

Template documentation
and downloads

And another site



No particular awareness of the weather is required.    There are no Weather-warnings

Pagina Historial Weather Underground text

Diari Resum Octubre 17, 2017 Unitats:  Mètric    Imperial   Tant
« Previous Dia
SegĂźent Dia »
Diari Setmana Mensual Anual Personalitzada
  Maxima: Minima: Media:
Temperatura: 24.0 °C 13.2 °C 19.1 °C
Punt de rosada: 15.3 °C 11.1 °C 13.2 °C
Humitat: 90 % 52 % 70 %
Wind Speed: 18.5 km/h 0.0 km/h 4.5 km/h
RĂ fegues de vent: 18.5 km/h - -
Vent:- - South
Pression baro: 1026.0 hPa 1016.8 hPa -
Precipitacions: 0.0 mm    
Historical Graphs
 
 
Dades de taula per Octubre 17, 2017
Temps Temperatura Punt de rosada Pression baro Vent Wind Speed RĂ fegues de vent Humitat Rainfall Rate (Hourly)
00:00 17.3 °C 12.8 °C 1026.0 hPa WSW 2.3 km/h 2.3 km/h 75 % 0.0 mm
00:05 17.4 °C 12.9 °C 1026.0 hPa WSW 1.6 km/h 3.2 km/h 75 % 0.0 mm
00:10 17.4 °C 12.9 °C 1026.0 hPa Calm     75 % 0.0 mm
00:15 17.3 °C 12.8 °C 1026.0 hPa WSW 1.9 km/h 1.9 km/h 75 % 0.0 mm
00:20 17.2 °C 12.7 °C 1026.0 hPa Calm     75 % 0.0 mm
00:25 17.2 °C 12.7 °C 1026.0 hPa WSW 1.9 km/h   75 % 0.0 mm
00:30 17.2 °C 12.9 °C 1026.0 hPa Calm     76 % 0.0 mm
00:35 17.2 °C 12.9 °C 1026.0 hPa ENE 2.3 km/h 2.3 km/h 76 % 0.0 mm
00:40 17.0 °C 12.7 °C 1026.0 hPa ENE 1.9 km/h   76 % 0.0 mm
00:45 17.0 °C 12.7 °C 1026.0 hPa Calm     76 % 0.0 mm
00:50 16.8 °C 12.7 °C 1026.0 hPa Calm     77 % 0.0 mm
00:55 14.1 °C 11.4 °C 1023.9 hPa Calm     84 % 0.0 mm
01:05 14.1 °C 11.6 °C 1023.9 hPa Calm     85 % 0.0 mm
01:15 14.0 °C 11.5 °C 1023.9 hPa Calm     85 % 0.0 mm
01:25 13.9 °C 11.4 °C 1023.9 hPa Calm     85 % 0.0 mm
01:35 13.9 °C 11.4 °C 1023.9 hPa Calm     85 % 0.0 mm
01:45 13.7 °C 11.2 °C 1023.9 hPa Calm   1.6 km/h 85 % 0.0 mm
02:05 13.7 °C 11.4 °C 1023.9 hPa Calm     86 % 0.0 mm
02:15 13.7 °C 11.4 °C 1023.9 hPa WNW 1.6 km/h 1.6 km/h 86 % 0.0 mm
02:25 13.7 °C 11.4 °C 1023.9 hPa Calm     86 % 0.0 mm
02:35 13.7 °C 11.6 °C 1023.9 hPa Calm     87 % 0.0 mm
02:45 13.6 °C 11.5 °C 1022.9 hPa Calm     87 % 0.0 mm
02:55 13.6 °C 11.5 °C 1022.9 hPa Calm     87 % 0.0 mm
03:05 13.6 °C 11.7 °C 1022.9 hPa Calm     88 % 0.0 mm
03:15 13.6 °C 11.7 °C 1023.9 hPa Calm     88 % 0.0 mm
03:25 13.2 °C 11.1 °C 1023.9 hPa Calm     87 % 0.0 mm
03:35 13.5 °C 11.6 °C 1023.9 hPa Calm     88 % 0.0 mm
03:45 13.6 °C 11.7 °C 1023.9 hPa Calm   3.2 km/h 88 % 0.0 mm
03:55 13.9 °C 11.9 °C 1023.9 hPa Calm   3.2 km/h 88 % 0.0 mm
04:05 14.3 °C 12.7 °C 1023.9 hPa Calm     90 % 0.0 mm
04:15 14.6 °C 12.8 °C 1023.9 hPa Calm   1.6 km/h 89 % 0.0 mm
04:25 15.4 °C 13.6 °C 1023.9 hPa SW 1.6 km/h 3.2 km/h 89 % 0.0 mm
04:35 15.6 °C 13.6 °C 1023.9 hPa SSW 1.6 km/h 3.2 km/h 88 % 0.0 mm
04:45 16.3 °C 13.9 °C 1022.9 hPa Calm   3.2 km/h 86 % 0.0 mm
04:55 16.4 °C 13.9 °C 1022.9 hPa Calm   3.2 km/h 85 % 0.0 mm
05:05 16.4 °C 13.7 °C 1022.9 hPa Calm   3.2 km/h 84 % 0.0 mm
05:15 16.5 °C 13.6 °C 1022.9 hPa WSW 1.6 km/h 3.2 km/h 83 % 0.0 mm
05:35 17.3 °C 13.8 °C 1022.9 hPa South 1.6 km/h 3.2 km/h 80 % 0.0 mm
05:45 17.4 °C 13.7 °C 1023.9 hPa SE 1.6 km/h 3.2 km/h 79 % 0.0 mm
05:50 17.6 °C 13.9 °C 1023.9 hPa Calm     79 % 0.0 mm
10:50 17.7 °C 14.0 °C 1023.9 hPa WNW 3.7 km/h   79 % 0.0 mm
10:55 18.0 °C 14.1 °C 1023.9 hPa WSW 3.7 km/h 3.7 km/h 78 % 0.0 mm
11:00 18.3 °C 14.4 °C 1022.9 hPa ENE 3.5 km/h 3.5 km/h 78 % 0.0 mm
11:05 18.8 °C 14.7 °C 1022.9 hPa NNW 6.1 km/h 6.1 km/h 77 % 0.0 mm
11:10 18.9 °C 14.6 °C 1022.9 hPa NNE 7.4 km/h 7.4 km/h 76 % 0.0 mm
11:15 19.5 °C 14.9 °C 1023.9 hPa NNE 5.6 km/h 5.6 km/h 75 % 0.0 mm
11:20 19.9 °C 15.1 °C 1023.9 hPa ENE 7.4 km/h 7.4 km/h 74 % 0.0 mm
11:25 19.9 °C 14.9 °C 1023.9 hPa North 9.3 km/h 9.3 km/h 73 % 0.0 mm
11:30 20.2 °C 14.8 °C 1023.9 hPa ENE 9.3 km/h 9.3 km/h 71 % 0.0 mm
11:35 20.3 °C 14.7 °C 1023.9 hPa NNE 9.3 km/h 9.3 km/h 70 % 0.0 mm
11:40 20.3 °C 14.4 °C 1023.9 hPa NE 9.3 km/h 9.3 km/h 69 % 0.0 mm
11:45 20.4 °C 14.5 °C 1023.9 hPa NE 9.3 km/h 9.3 km/h 69 % 0.0 mm
11:50 20.5 °C 14.4 °C 1023.9 hPa East 7.4 km/h 7.4 km/h 68 % 0.0 mm
11:55 20.7 °C 14.6 °C 1023.9 hPa ESE 7.4 km/h 7.4 km/h 68 % 0.0 mm
12:00 21.1 °C 14.9 °C 1023.9 hPa NNE 7.4 km/h 7.4 km/h 68 % 0.0 mm
12:05 20.8 °C 14.4 °C 1023.9 hPa ESE 7.4 km/h 7.4 km/h 67 % 0.0 mm
12:10 21.2 °C 14.8 °C 1023.9 hPa ENE 3.7 km/h 3.7 km/h 67 % 0.0 mm
12:15 21.1 °C 14.5 °C 1023.9 hPa ESE 5.6 km/h 5.6 km/h 66 % 0.0 mm
12:20 21.0 °C 14.4 °C 1023.9 hPa East 5.6 km/h 5.6 km/h 66 % 0.0 mm
12:21 21.0 °C 14.4 °C 1023.9 hPa East 5.6 km/h 5.6 km/h 66 % 0.0 mm
12:26 20.8 °C 14.2 °C 1022.9 hPa East 7.9 km/h 7.9 km/h 66 % 0.0 mm
12:31 21.1 °C 14.7 °C 1022.9 hPa ENE 7.4 km/h 7.4 km/h 67 % 0.0 mm
12:36 21.1 °C 14.5 °C 1022.9 hPa ESE 3.9 km/h 3.9 km/h 66 % 0.0 mm
12:41 21.5 °C 14.4 °C 1022.9 hPa SSE 5.6 km/h 5.6 km/h 64 % 0.0 mm
12:46 21.8 °C 14.9 °C 1022.9 hPa South 3.7 km/h 3.7 km/h 65 % 0.0 mm
12:51 21.7 °C 14.3 °C 1022.9 hPa East 7.4 km/h 7.4 km/h 63 % 0.0 mm
12:56 21.9 °C 14.6 °C 1022.9 hPa ESE 5.6 km/h 5.6 km/h 63 % 0.0 mm
13:01 22.0 °C 14.6 °C 1022.9 hPa SW 7.4 km/h 7.4 km/h 63 % 0.0 mm
13:06 22.6 °C 15.2 °C 1022.9 hPa SE 5.3 km/h 5.3 km/h 63 % 0.0 mm
13:11 22.4 °C 14.8 °C 1022.9 hPa South 3.7 km/h 3.7 km/h 62 % 0.0 mm
13:16 22.4 °C 14.8 °C 1022.9 hPa ESE 3.7 km/h 3.7 km/h 62 % 0.0 mm
13:21 23.0 °C 15.3 °C 1022.9 hPa WSW 5.6 km/h 5.6 km/h 62 % 0.0 mm
13:26 22.5 °C 14.6 °C 1021.9 hPa East 3.7 km/h 3.7 km/h 61 % 0.0 mm
13:31 22.3 °C 14.4 °C 1021.9 hPa East 8.7 km/h 8.7 km/h 61 % 0.0 mm
13:36 22.6 °C 14.9 °C 1021.9 hPa WSW 3.7 km/h 3.7 km/h 62 % 0.0 mm
13:41 23.0 °C 14.8 °C 1021.9 hPa East 4.2 km/h 4.2 km/h 60 % 0.0 mm
13:46 23.2 °C 15.0 °C 1021.9 hPa ESE 4.7 km/h   60 % 0.0 mm
13:51 23.4 °C 15.2 °C 1021.9 hPa East 5.6 km/h 5.6 km/h 60 % 0.0 mm
13:56 23.3 °C 14.6 °C 1020.9 hPa SSW 9.3 km/h 9.3 km/h 58 % 0.0 mm
14:01 23.4 °C 14.9 °C 1020.9 hPa SW 5.6 km/h 5.6 km/h 59 % 0.0 mm
14:06 23.4 °C 15.2 °C 1020.9 hPa WSW 7.4 km/h 7.4 km/h 60 % 0.0 mm
14:11 23.1 °C 14.7 °C 1021.9 hPa WSW 5.6 km/h 5.6 km/h 59 % 0.0 mm
14:16 23.2 °C 14.7 °C 1021.9 hPa SW 5.3 km/h 5.3 km/h 59 % 0.0 mm
14:21 23.3 °C 14.8 °C 1021.9 hPa SSW 9.3 km/h 9.3 km/h 59 % 0.0 mm
14:26 23.4 °C 14.4 °C 1021.9 hPa SSE 3.7 km/h 3.7 km/h 57 % 0.0 mm
14:31 23.5 °C 14.5 °C 1021.9 hPa WSW 3.9 km/h 3.9 km/h 57 % 0.0 mm
14:36 23.3 °C 14.1 °C 1021.9 hPa South 5.6 km/h 5.6 km/h 56 % 0.0 mm
14:41 23.6 °C 14.3 °C 1021.9 hPa ESE 9.0 km/h 9.0 km/h 56 % 0.0 mm
14:46 23.3 °C 14.3 °C 1021.9 hPa East 5.6 km/h 5.6 km/h 57 % 0.0 mm
14:51 23.7 °C 14.1 °C 1021.9 hPa South 7.4 km/h 7.4 km/h 55 % 0.0 mm
14:56 23.7 °C 14.7 °C 1020.9 hPa NW 9.3 km/h 9.3 km/h 57 % 0.0 mm
14:57 23.6 °C 14.6 °C 1020.9 hPa NNW 7.4 km/h 7.4 km/h 57 % 0.0 mm
15:02 24.0 °C 14.1 °C 1020.9 hPa SSE 13.0 km/h 13.0 km/h 54 % 0.0 mm
15:07 23.6 °C 14.1 °C 1020.9 hPa SSE 9.0 km/h 9.0 km/h 55 % 0.0 mm
15:12 23.9 °C 14.3 °C 1019.9 hPa ESE 13.0 km/h 13.0 km/h 55 % 0.0 mm
15:17 23.7 °C 13.8 °C 1019.9 hPa ESE 9.7 km/h 9.7 km/h 54 % 0.0 mm
15:22 23.6 °C 13.7 °C 1019.9 hPa South 9.7 km/h 9.7 km/h 54 % 0.0 mm
15:27 23.6 °C 14.1 °C 1019.9 hPa ESE 9.3 km/h 9.3 km/h 55 % 0.0 mm
15:32 23.4 °C 13.6 °C 1019.9 hPa ESE 14.8 km/h 14.8 km/h 54 % 0.0 mm
15:37 23.7 °C 13.3 °C 1019.9 hPa East 7.4 km/h 7.4 km/h 52 % 0.0 mm
15:42 23.6 °C 13.4 °C 1019.9 hPa ESE 5.6 km/h 5.6 km/h 53 % 0.0 mm
15:47 23.5 °C 13.4 °C 1019.9 hPa ENE 11.1 km/h 11.1 km/h 53 % 0.0 mm
15:52 23.2 °C 13.4 °C 1019.9 hPa ESE 14.8 km/h 14.8 km/h 54 % 0.0 mm
15:57 23.1 °C 13.0 °C 1019.9 hPa SE 13.0 km/h 13.0 km/h 53 % 0.0 mm
16:02 23.0 °C 12.9 °C 1019.9 hPa ESE 18.5 km/h 18.5 km/h 53 % 0.0 mm
16:07 22.9 °C 12.8 °C 1019.9 hPa ESE 11.1 km/h 11.1 km/h 53 % 0.0 mm
16:12 22.7 °C 12.9 °C 1019.9 hPa ESE 11.1 km/h 11.1 km/h 54 % 0.0 mm
16:17 22.8 °C 13.0 °C 1019.9 hPa ENE 16.7 km/h 16.7 km/h 54 % 0.0 mm
16:22 23.1 °C 13.3 °C 1019.9 hPa ESE 13.0 km/h 13.0 km/h 54 % 0.0 mm
16:27 22.8 °C 13.0 °C 1019.9 hPa ENE 13.0 km/h 13.0 km/h 54 % 0.0 mm
16:32 22.9 °C 13.1 °C 1019.9 hPa ESE 14.8 km/h 14.8 km/h 54 % 0.0 mm
16:37 22.9 °C 13.1 °C 1019.9 hPa ESE 13.0 km/h 13.0 km/h 54 % 0.0 mm
16:42 22.8 °C 13.0 °C 1019.9 hPa ENE 13.0 km/h 13.0 km/h 54 % 0.0 mm
16:47 22.6 °C 12.8 °C 1019.9 hPa ENE 13.0 km/h 13.0 km/h 54 % 0.0 mm
16:52 22.5 °C 12.7 °C 1019.9 hPa East 13.0 km/h 13.0 km/h 54 % 0.0 mm
16:57 22.4 °C 12.6 °C 1019.9 hPa SE 13.0 km/h 13.0 km/h 54 % 0.0 mm
17:02 22.5 °C 13.0 °C 1019.9 hPa ESE 16.7 km/h 16.7 km/h 55 % 0.0 mm
17:07 22.9 °C 13.4 °C 1019.9 hPa SSE 5.6 km/h 5.6 km/h 55 % 0.0 mm
17:12 23.8 °C 13.9 °C 1019.9 hPa SSW 7.4 km/h 7.4 km/h 54 % 0.0 mm
17:17 23.9 °C 14.0 °C 1019.9 hPa WSW 11.1 km/h 11.1 km/h 54 % 0.0 mm
17:27 24.0 °C 13.8 °C 1019.9 hPa SSW 11.4 km/h 11.4 km/h 53 % 0.0 mm
17:32 23.8 °C 13.9 °C 1019.9 hPa SW 9.5 km/h 9.5 km/h 54 % 0.0 mm
17:37 23.7 °C 13.6 °C 1019.9 hPa SW 9.3 km/h 9.3 km/h 53 % 0.0 mm
17:42 23.9 °C 14.0 °C 1019.9 hPa WSW 11.1 km/h 11.1 km/h 54 % 0.0 mm
17:47 23.6 °C 13.4 °C 1019.9 hPa WNW 11.1 km/h 11.1 km/h 53 % 0.0 mm
17:52 23.4 °C 13.3 °C 1019.9 hPa SSE 9.3 km/h 9.3 km/h 53 % 0.0 mm
17:57 23.3 °C 13.2 °C 1019.9 hPa SSW 5.6 km/h 5.8 km/h 53 % 0.0 mm
18:02 23.1 °C 13.0 °C 1019.9 hPa WSW 13.0 km/h 13.0 km/h 53 % 0.0 mm
18:07 23.0 °C 12.9 °C 1019.9 hPa SW 11.1 km/h 11.1 km/h 53 % 0.0 mm
18:12 22.8 °C 13.0 °C 1019.9 hPa SW 9.7 km/h 9.7 km/h 54 % 0.0 mm
18:17 22.6 °C 12.8 °C 1019.9 hPa SSE 10.0 km/h 10.0 km/h 54 % 0.0 mm
18:22 22.3 °C 12.8 °C 1019.9 hPa SSW 11.1 km/h 11.1 km/h 55 % 0.0 mm
18:27 22.2 °C 13.0 °C 1019.9 hPa SW 5.6 km/h 5.6 km/h 56 % 0.0 mm
18:32 22.0 °C 12.8 °C 1019.9 hPa SSW 5.6 km/h 5.6 km/h 56 % 0.0 mm
18:37 21.9 °C 13.0 °C 1019.9 hPa WSW 5.6 km/h 6.4 km/h 57 % 0.0 mm
18:42 21.5 °C 12.6 °C 1019.9 hPa SW 9.3 km/h 9.3 km/h 57 % 0.0 mm
18:47 21.2 °C 12.6 °C 1019.9 hPa SSW 7.4 km/h 7.4 km/h 58 % 0.0 mm
18:52 21.0 °C 12.4 °C 1019.9 hPa SSW 9.3 km/h 9.3 km/h 58 % 0.0 mm
18:57 20.7 °C 12.4 °C 1019.9 hPa SW 9.3 km/h 9.3 km/h 59 % 0.0 mm
19:02 20.6 °C 12.3 °C 1019.9 hPa SW 9.3 km/h 9.3 km/h 59 % 0.0 mm
19:07 20.4 °C 12.4 °C 1019.9 hPa South 9.3 km/h 9.3 km/h 60 % 0.0 mm
19:12 20.3 °C 12.6 °C 1019.9 hPa SW 7.4 km/h 7.4 km/h 61 % 0.0 mm
19:15 15.9 °C 12.4 °C 1019.9 hPa Calm     80 % 0.0 mm
19:17 20.1 °C 12.3 °C 1019.9 hPa SW 9.3 km/h 9.3 km/h 61 % 0.0 mm
19:22 20.0 °C 12.5 °C 1019.9 hPa South 10.3 km/h 10.3 km/h 62 % 0.0 mm
19:25 15.9 °C 12.4 °C 1019.9 hPa Calm     80 % 0.0 mm
19:27 19.9 °C 12.7 °C 1019.9 hPa WSW 5.6 km/h 5.6 km/h 63 % 0.0 mm
19:32 19.8 °C 12.6 °C 1019.9 hPa WSW 7.4 km/h 7.4 km/h 63 % 0.0 mm
19:35 15.9 °C 12.4 °C 1019.9 hPa Calm     80 % 0.0 mm
19:37 19.6 °C 12.6 °C 1019.9 hPa SSW 7.4 km/h 7.4 km/h 64 % 0.0 mm
19:42 19.5 °C 12.5 °C 1019.9 hPa WSW 5.8 km/h 5.8 km/h 64 % 0.0 mm
19:45 15.8 °C 12.3 °C 1018.8 hPa Calm     80 % 0.0 mm
19:47 19.4 °C 12.7 °C 1019.9 hPa WSW 7.9 km/h 7.9 km/h 65 % 0.0 mm
19:52 19.3 °C 12.8 °C 1019.9 hPa SW 6.9 km/h 6.9 km/h 66 % 0.0 mm
19:55 15.8 °C 12.6 °C 1018.8 hPa Calm     81 % 0.0 mm
19:57 19.2 °C 12.7 °C 1019.9 hPa WSW 3.9 km/h 3.9 km/h 66 % 0.0 mm
20:02 19.1 °C 12.6 °C 1019.9 hPa SW 4.2 km/h 4.2 km/h 66 % 0.0 mm
20:05 15.7 °C 12.4 °C 1019.9 hPa NE 1.6 km/h 4.8 km/h 81 % 0.0 mm
20:07 19.0 °C 12.7 °C 1019.9 hPa SW 5.6 km/h 5.6 km/h 67 % 0.0 mm
20:12 18.8 °C 13.0 °C 1019.9 hPa SW 3.7 km/h 3.7 km/h 69 % 0.0 mm
20:15 15.8 °C 12.6 °C 1019.9 hPa NE 3.2 km/h 3.2 km/h 81 % 0.0 mm
20:17 18.7 °C 12.9 °C 1019.9 hPa SW 1.9 km/h 1.9 km/h 69 % 0.0 mm
20:22 18.6 °C 12.8 °C 1019.9 hPa SW 3.9 km/h 3.9 km/h 69 % 0.0 mm
20:25 15.8 °C 12.6 °C 1019.9 hPa NE 3.2 km/h 4.8 km/h 81 % 0.0 mm
20:27 18.6 °C 13.0 °C 1019.9 hPa SW 3.7 km/h 3.7 km/h 70 % 0.0 mm
20:32 18.5 °C 12.9 °C 1019.9 hPa SW 2.6 km/h 2.6 km/h 70 % 0.0 mm
20:37 18.4 °C 13.1 °C 1019.9 hPa SW 1.9 km/h   71 % 0.0 mm
20:42 18.3 °C 12.9 °C 1019.9 hPa Calm     71 % 0.0 mm
20:45 15.6 °C 12.3 °C 1018.8 hPa NW 1.6 km/h 3.2 km/h 81 % 0.0 mm
20:47 18.2 °C 13.1 °C 1019.9 hPa Calm     72 % 0.0 mm
20:52 18.1 °C 12.9 °C 1019.9 hPa Calm     72 % 0.0 mm
20:55 15.6 °C 12.6 °C 1018.8 hPa Calm   3.2 km/h 82 % 0.0 mm
20:57 18.0 °C 12.9 °C 1019.9 hPa Calm     72 % 0.0 mm
21:02 17.9 °C 13.0 °C 1019.9 hPa Calm     73 % 0.0 mm
21:03 17.9 °C 13.0 °C 1019.9 hPa Calm     73 % 0.0 mm
21:05 15.6 °C 12.6 °C 1018.8 hPa Calm   3.2 km/h 82 % 0.0 mm
21:08 17.9 °C 13.0 °C 1019.9 hPa Calm     73 % 0.0 mm
21:13 17.9 °C 13.0 °C 1019.9 hPa NW 2.3 km/h 2.3 km/h 73 % 0.0 mm
21:15 15.7 °C 12.6 °C 1018.8 hPa SW 1.6 km/h 1.6 km/h 82 % 0.0 mm
21:18 17.9 °C 13.0 °C 1019.9 hPa NW 1.9 km/h   73 % 0.0 mm
21:23 17.9 °C 13.0 °C 1019.9 hPa NW 1.9 km/h   73 % 0.0 mm
21:25 15.7 °C 12.6 °C 1018.8 hPa Calm   3.2 km/h 82 % 0.0 mm
21:28 17.8 °C 12.9 °C 1019.9 hPa Calm     73 % 0.0 mm
21:33 17.8 °C 12.9 °C 1019.9 hPa NW 1.9 km/h   73 % 0.0 mm
21:35 15.7 °C 12.6 °C 1018.8 hPa Calm   3.2 km/h 82 % 0.0 mm
21:38 17.8 °C 13.1 °C 1019.9 hPa Calm     74 % 0.0 mm
21:43 17.7 °C 13.0 °C 1019.9 hPa NW 1.9 km/h   74 % 0.0 mm
21:45 15.8 °C 12.7 °C 1018.8 hPa ENE 1.6 km/h 3.2 km/h 82 % 0.0 mm
21:48 17.8 °C 13.1 °C 1019.9 hPa NW 2.3 km/h 2.3 km/h 74 % 0.0 mm
21:53 17.8 °C 13.1 °C 1019.9 hPa Calm     74 % 0.0 mm
21:55 15.6 °C 12.6 °C 1018.8 hPa Calm   1.6 km/h 82 % 0.0 mm
21:58 17.8 °C 13.3 °C 1019.9 hPa Calm     75 % 0.0 mm
22:03 17.8 °C 13.3 °C 1019.9 hPa Calm     75 % 0.0 mm
22:04 17.8 °C 13.3 °C 1019.9 hPa Calm     75 % 0.0 mm
22:05 15.5 °C 12.3 °C 1017.8 hPa SW 1.6 km/h 3.2 km/h 81 % 0.0 mm
22:09 17.7 °C 13.2 °C 1019.9 hPa NW 1.9 km/h   75 % 0.0 mm
22:14 17.7 °C 13.2 °C 1019.9 hPa Calm     75 % 0.0 mm
22:15 15.5 °C 12.4 °C 1017.8 hPa Calm     82 % 0.0 mm
22:19 17.6 °C 13.1 °C 1019.9 hPa Calm     75 % 0.0 mm
22:24 17.5 °C 13.0 °C 1019.9 hPa NW 1.9 km/h   75 % 0.0 mm
22:25 15.6 °C 12.6 °C 1017.8 hPa Calm     82 % 0.0 mm
22:29 17.2 °C 12.7 °C 1019.9 hPa NW 1.9 km/h 1.9 km/h 75 % 0.0 mm
22:34 17.1 °C 12.8 °C 1019.9 hPa NW 1.9 km/h   76 % 0.0 mm
22:35 15.7 °C 12.6 °C 1017.8 hPa Calm   3.2 km/h 82 % 0.0 mm
22:39 17.1 °C 12.8 °C 1019.9 hPa Calm     76 % 0.0 mm
22:44 17.1 °C 12.8 °C 1019.9 hPa Calm     76 % 0.0 mm
22:45 15.6 °C 12.6 °C 1016.8 hPa Calm   1.6 km/h 82 % 0.0 mm
22:49 16.9 °C 12.8 °C 1019.9 hPa Calm     77 % 0.0 mm
22:54 16.8 °C 12.7 °C 1019.9 hPa Calm     77 % 0.0 mm
22:55 15.8 °C 12.9 °C 1016.8 hPa Calm     83 % 0.0 mm
22:59 16.7 °C 12.7 °C 1019.9 hPa Calm     77 % 0.0 mm
23:04 16.6 °C 12.6 °C 1019.9 hPa West 2.3 km/h   77 % 0.0 mm
23:05 16.0 °C 12.9 °C 1016.8 hPa WNW 1.6 km/h 1.6 km/h 82 % 0.0 mm
23:09 16.5 °C 12.4 °C 1019.9 hPa Calm     77 % 0.0 mm
23:14 16.5 °C 12.7 °C 1019.9 hPa Calm     78 % 0.0 mm
23:15 15.9 °C 12.8 °C 1017.8 hPa NE 1.6 km/h 4.8 km/h 82 % 0.0 mm
23:19 16.4 °C 12.6 °C 1019.9 hPa Calm     78 % 0.0 mm
23:24 16.4 °C 12.7 °C 1019.9 hPa Calm     79 % 0.0 mm
23:25 16.0 °C 12.9 °C 1017.8 hPa Calm   1.6 km/h 82 % 0.0 mm
23:29 16.3 °C 12.7 °C 1019.9 hPa NE 1.9 km/h   79 % 0.0 mm
23:34 16.2 °C 12.6 °C 1019.9 hPa Calm     79 % 0.0 mm
23:35 16.0 °C 12.9 °C 1017.8 hPa North 1.6 km/h 3.2 km/h 82 % 0.0 mm
23:39 16.2 °C 12.6 °C 1019.9 hPa Calm     79 % 0.0 mm
23:44 16.1 °C 12.4 °C 1019.9 hPa Calm     79 % 0.0 mm
23:45 16.0 °C 12.9 °C 1016.8 hPa NNE 4.8 km/h 6.4 km/h 82 % 0.0 mm
23:49 16.1 °C 12.4 °C 1019.9 hPa Calm     79 % 0.0 mm
23:54 16.1 °C 12.4 °C 1019.9 hPa Calm     79 % 0.0 mm
23:55 16.1 °C 13.0 °C 1016.8 hPa NE 1.6 km/h 4.8 km/h 82 % 0.0 mm
23:59 16.0 °C 12.3 °C 1019.9 hPa Calm     79 % 0.0 mm
Meteo Sesrovires
Elogis d' Weather Underground - 3.75 mb

Guio original per  Jim McMurry - jmcmurry@mwt.net Adaptat per a la plantilla per  Wim van der Kuil - Leuven-Template.eu

Trobareu la nostra informacio del temps tambe a:

Weather Underground

AWEKAS